createdAt,value
2018-12-08T00:00:05.400Z,965.82
2018-12-08T00:01:05.426Z,965.66
2018-12-08T00:02:04.990Z,965.77
2018-12-08T00:03:04.957Z,965.77
2018-12-08T00:04:05.279Z,965.69
2018-12-08T00:05:05.250Z,965.78
2018-12-08T00:06:05.409Z,965.81
2018-12-08T00:07:04.945Z,965.81
2018-12-08T00:08:04.679Z,965.78
2018-12-08T00:09:04.624Z,965.72
2018-12-08T00:10:04.629Z,965.84
2018-12-08T00:11:04.702Z,965.87
2018-12-08T00:12:04.964Z,965.64
2018-12-08T00:13:04.986Z,965.79
2018-12-08T00:14:05.224Z,965.73
2018-12-08T00:15:04.557Z,965.73
2018-12-08T00:16:05.113Z,965.82
2018-12-08T00:17:04.621Z,965.73
2018-12-08T00:18:05.051Z,965.79
2018-12-08T00:19:05.025Z,965.82
2018-12-08T00:20:05.233Z,965.91
2018-12-08T00:21:04.893Z,965.77
2018-12-08T00:22:04.955Z,965.80
2018-12-08T00:23:05.209Z,965.91
2018-12-08T00:24:05.409Z,965.80
2018-12-08T00:25:04.583Z,965.92
2018-12-08T00:26:04.686Z,965.89
2018-12-08T00:27:04.694Z,966.03
2018-12-08T00:28:09.883Z,965.95
2018-12-08T00:29:05.383Z,966.09
2018-12-08T00:30:04.822Z,965.81
2018-12-08T00:31:04.933Z,965.92
2018-12-08T00:32:05.425Z,965.95
2018-12-08T00:33:05.022Z,965.93
2018-12-08T00:34:04.574Z,965.90
2018-12-08T00:35:04.863Z,965.96
2018-12-08T00:36:04.677Z,965.96
2018-12-08T00:37:04.857Z,966.10
2018-12-08T00:38:05.503Z,965.99
2018-12-08T00:39:05.064Z,966.10
2018-12-08T00:40:05.120Z,966.13
2018-12-08T00:41:05.030Z,966.25
2018-12-08T00:42:04.705Z,966.19
2018-12-08T00:43:04.985Z,966.14
2018-12-08T00:44:04.614Z,966.19
2018-12-08T00:45:04.876Z,966.25
2018-12-08T00:46:04.975Z,966.14
2018-12-08T00:47:04.582Z,966.11
2018-12-08T00:48:09.923Z,966.14
2018-12-08T00:49:05.313Z,966.12
2018-12-08T00:50:05.476Z,966.20
2018-12-08T00:51:04.619Z,966.20
2018-12-08T00:52:04.781Z,966.17
2018-12-08T00:53:05.254Z,966.26
2018-12-08T00:54:04.616Z,966.23
2018-12-08T00:55:05.127Z,966.23
2018-12-08T00:56:05.386Z,966.15
2018-12-08T00:57:05.458Z,966.20
2018-12-08T00:58:05.456Z,966.32
2018-12-08T00:59:04.542Z,966.32
2018-12-08T01:00:05.085Z,966.18
2018-12-08T01:01:04.591Z,966.21
2018-12-08T01:02:04.781Z,966.46
2018-12-08T01:03:05.206Z,966.32
2018-12-08T01:04:05.344Z,966.29
2018-12-08T01:05:05.459Z,966.29
2018-12-08T01:06:04.703Z,966.32
2018-12-08T01:07:05.178Z,966.27
2018-12-08T01:08:05.534Z,966.41
2018-12-08T01:09:05.512Z,966.32
2018-12-08T01:10:04.757Z,966.24
2018-12-08T01:11:05.092Z,966.18
2018-12-08T01:12:05.281Z,966.24
2018-12-08T01:13:04.740Z,966.38
2018-12-08T01:14:05.007Z,966.41
2018-12-08T01:15:04.531Z,966.30
2018-12-08T01:16:04.747Z,966.21
2018-12-08T01:17:05.370Z,966.19
2018-12-08T01:18:05.380Z,966.33
2018-12-08T01:19:04.726Z,966.30
2018-12-08T01:20:05.288Z,966.41
2018-12-08T01:21:04.523Z,966.30
2018-12-08T01:22:04.810Z,966.33
2018-12-08T01:23:04.928Z,966.30
2018-12-08T01:24:05.328Z,966.22
2018-12-08T01:25:04.777Z,966.30
2018-12-08T01:26:04.834Z,966.22
2018-12-08T01:27:04.998Z,966.33
2018-12-08T01:28:05.025Z,966.30
2018-12-08T01:29:05.407Z,966.28
2018-12-08T01:30:04.809Z,966.25
2018-12-08T01:31:05.201Z,966.30
2018-12-08T01:32:05.347Z,966.19
2018-12-08T01:33:05.381Z,966.42
2018-12-08T01:34:05.088Z,966.36
2018-12-08T01:35:04.585Z,966.36
2018-12-08T01:36:04.724Z,966.25
2018-12-08T01:37:05.629Z,966.28
2018-12-08T01:38:05.479Z,966.36
2018-12-08T01:39:04.846Z,966.19
2018-12-08T01:40:05.283Z,966.11
2018-12-08T01:41:05.443Z,966.14
2018-12-08T01:42:04.835Z,966.17
2018-12-08T01:43:05.140Z,966.31
2018-12-08T01:44:04.742Z,966.25
2018-12-08T01:45:10.063Z,966.28
2018-12-08T01:46:05.440Z,966.31
2018-12-08T01:47:04.703Z,966.48
2018-12-08T01:48:04.814Z,966.37
2018-12-08T01:49:05.392Z,966.37
2018-12-08T01:50:04.657Z,966.48
2018-12-08T01:51:04.634Z,966.45
2018-12-08T01:52:05.117Z,966.45
2018-12-08T01:53:05.708Z,966.37
2018-12-08T01:54:04.609Z,966.37
2018-12-08T01:55:05.141Z,966.45
2018-12-08T01:56:04.625Z,966.40
2018-12-08T01:57:04.793Z,966.48
2018-12-08T01:58:05.031Z,966.40
2018-12-08T01:59:05.473Z,966.54
2018-12-08T02:00:04.568Z,966.48
2018-12-08T02:01:04.802Z,966.40
2018-12-08T02:02:05.022Z,966.54
2018-12-08T02:03:05.291Z,966.48
2018-12-08T02:04:04.534Z,966.51
2018-12-08T02:05:04.782Z,966.57
2018-12-08T02:06:04.778Z,966.68
2018-12-08T02:07:04.930Z,966.54
2018-12-08T02:08:05.025Z,966.43
2018-12-08T02:09:05.213Z,966.51
2018-12-08T02:10:05.516Z,966.37
2018-12-08T02:11:04.967Z,966.34
2018-12-08T02:12:05.308Z,966.43
2018-12-08T02:13:05.441Z,966.51
2018-12-08T02:14:05.047Z,966.48
2018-12-08T02:15:05.248Z,966.51
2018-12-08T02:16:05.477Z,966.54
2018-12-08T02:17:05.027Z,966.43
2018-12-08T02:18:05.233Z,966.29
2018-12-08T02:19:04.563Z,966.35
2018-12-08T02:20:05.168Z,966.49
2018-12-08T02:21:05.387Z,966.58
2018-12-08T02:22:04.868Z,966.60
2018-12-08T02:23:04.947Z,966.55
2018-12-08T02:24:05.498Z,966.66
2018-12-08T02:25:04.623Z,966.58
2018-12-08T02:26:04.676Z,966.60
2018-12-08T02:27:05.433Z,966.58
2018-12-08T02:28:09.547Z,966.66
2018-12-08T02:29:05.054Z,966.69
2018-12-08T02:30:05.665Z,966.58
2018-12-08T02:31:04.826Z,966.55
2018-12-08T02:32:05.363Z,966.80
2018-12-08T02:33:04.820Z,966.72
2018-12-08T02:34:04.780Z,966.77
2018-12-08T02:35:04.946Z,966.94
2018-12-08T02:36:05.436Z,966.89
2018-12-08T02:37:05.067Z,966.80
2018-12-08T02:38:05.154Z,966.72
2018-12-08T02:39:05.446Z,966.94
2018-12-08T02:40:04.724Z,966.89
2018-12-08T02:41:04.705Z,966.80
2018-12-08T02:42:05.259Z,966.94
2018-12-08T02:43:05.511Z,966.80
2018-12-08T02:44:04.561Z,966.86
2018-12-08T02:45:05.333Z,966.97
2018-12-08T02:46:04.743Z,966.89
2018-12-08T02:47:04.979Z,966.97
2018-12-08T02:48:05.562Z,966.97
2018-12-08T02:49:04.974Z,966.83
2018-12-08T02:50:05.090Z,966.91
2018-12-08T02:51:04.741Z,966.77
2018-12-08T02:52:05.254Z,966.86
2018-12-08T02:53:10.351Z,966.94
2018-12-08T02:54:04.800Z,966.80
2018-12-08T02:55:06.005Z,966.86
2018-12-08T02:56:04.994Z,966.77
2018-12-08T02:57:04.643Z,966.80
2018-12-08T02:58:04.692Z,967.01
2018-12-08T02:59:05.340Z,966.86
2018-12-08T03:00:05.434Z,966.86
2018-12-08T03:01:04.799Z,966.86
2018-12-08T03:02:04.956Z,966.99
2018-12-08T03:03:05.390Z,966.94
2018-12-08T03:04:04.661Z,966.99
2018-12-08T03:05:04.805Z,966.91
2018-12-08T03:06:05.013Z,967.07
2018-12-08T03:07:05.477Z,967.07
2018-12-08T03:08:04.602Z,966.93
2018-12-08T03:09:04.919Z,966.99
2018-12-08T03:10:04.970Z,966.99
2018-12-08T03:11:05.134Z,967.03
2018-12-08T03:12:05.188Z,967.06
2018-12-08T03:13:04.740Z,967.15
2018-12-08T03:14:05.512Z,967.01
2018-12-08T03:15:04.563Z,967.14
2018-12-08T03:16:04.735Z,967.14
2018-12-08T03:17:04.943Z,967.09
2018-12-08T03:18:05.106Z,967.23
2018-12-08T03:19:05.198Z,967.20
2018-12-08T03:20:04.685Z,967.25
2018-12-08T03:21:04.807Z,967.39
2018-12-08T03:22:04.951Z,967.44
2018-12-08T03:23:05.251Z,967.42
2018-12-08T03:24:05.449Z,967.56
2018-12-08T03:25:04.692Z,967.34
2018-12-08T03:26:05.646Z,967.31
2018-12-08T03:27:05.400Z,967.31
2018-12-08T03:28:09.544Z,967.23
2018-12-08T03:29:05.005Z,967.39
2018-12-08T03:30:04.637Z,967.34
2018-12-08T03:31:05.077Z,967.31
2018-12-08T03:32:05.086Z,967.26
2018-12-08T03:33:04.872Z,967.32
2018-12-08T03:34:05.155Z,967.32
2018-12-08T03:35:05.285Z,967.39
2018-12-08T03:36:04.531Z,967.48
2018-12-08T03:37:04.739Z,967.40
2018-12-08T03:38:05.019Z,967.45
2018-12-08T03:39:05.380Z,967.43
2018-12-08T03:40:05.528Z,967.51
2018-12-08T03:41:04.641Z,967.60
2018-12-08T03:42:05.416Z,967.54
2018-12-08T03:43:05.214Z,967.52
2018-12-08T03:44:04.658Z,967.49
2018-12-08T03:45:04.817Z,967.41
2018-12-08T03:46:04.998Z,967.52
2018-12-08T03:47:04.695Z,967.55
2018-12-08T03:48:09.932Z,967.58
2018-12-08T03:49:05.298Z,967.52
2018-12-08T03:50:04.767Z,967.60
2018-12-08T03:51:04.908Z,967.60
2018-12-08T03:52:05.334Z,967.52
2018-12-08T03:53:05.444Z,967.58
2018-12-08T03:54:05.350Z,967.55
2018-12-08T03:55:04.744Z,967.60
2018-12-08T03:56:05.063Z,967.55
2018-12-08T03:57:04.657Z,967.55
2018-12-08T03:58:05.217Z,967.61
2018-12-08T03:59:05.023Z,967.44
2018-12-08T04:00:05.144Z,967.47
2018-12-08T04:01:05.259Z,967.55
2018-12-08T04:02:04.648Z,967.47
2018-12-08T04:03:05.113Z,967.44
2018-12-08T04:04:05.381Z,967.49
2018-12-08T04:05:05.414Z,967.44
2018-12-08T04:06:05.077Z,967.52
2018-12-08T04:07:05.163Z,967.36
2018-12-08T04:08:05.420Z,967.36
2018-12-08T04:09:04.560Z,967.44
2018-12-08T04:10:05.643Z,967.34
2018-12-08T04:11:04.585Z,967.52
2018-12-08T04:12:04.807Z,967.58
2018-12-08T04:13:05.025Z,967.52
2018-12-08T04:14:05.124Z,967.47
2018-12-08T04:15:05.332Z,967.39
2018-12-08T04:16:05.389Z,967.44
2018-12-08T04:17:04.617Z,967.28
2018-12-08T04:18:04.858Z,967.50
2018-12-08T04:19:04.519Z,967.44
2018-12-08T04:20:05.274Z,967.44
2018-12-08T04:21:05.025Z,967.50
2018-12-08T04:22:05.248Z,967.42
2018-12-08T04:23:04.904Z,967.39
2018-12-08T04:24:05.252Z,967.26
2018-12-08T04:25:05.481Z,967.34
2018-12-08T04:26:04.725Z,967.39
2018-12-08T04:27:05.184Z,967.50
2018-12-08T04:28:09.807Z,967.20
2018-12-08T04:29:05.198Z,967.39
2018-12-08T04:30:05.064Z,967.35
2018-12-08T04:31:04.562Z,967.23
2018-12-08T04:32:04.765Z,967.45
2018-12-08T04:33:04.861Z,967.45
2018-12-08T04:34:05.091Z,967.42
2018-12-08T04:35:04.686Z,967.42
2018-12-08T04:36:04.797Z,967.40
2018-12-08T04:37:05.160Z,967.48
2018-12-08T04:38:05.268Z,967.40
2018-12-08T04:39:04.623Z,967.54
2018-12-08T04:40:05.051Z,967.59
2018-12-08T04:41:05.596Z,967.59
2018-12-08T04:42:04.601Z,967.57
2018-12-08T04:43:04.804Z,967.68
2018-12-08T04:44:05.119Z,967.65
2018-12-08T04:45:05.195Z,967.68
2018-12-08T04:46:05.164Z,967.68
2018-12-08T04:47:04.476Z,967.68
2018-12-08T04:48:04.710Z,967.79
2018-12-08T04:49:04.783Z,967.70
2018-12-08T04:50:04.896Z,967.76
2018-12-08T04:51:04.763Z,967.79
2018-12-08T04:52:04.900Z,967.96
2018-12-08T04:53:04.920Z,967.79
2018-12-08T04:54:05.197Z,967.95
2018-12-08T04:55:05.416Z,967.84
2018-12-08T04:56:05.591Z,967.90
2018-12-08T04:57:04.994Z,967.84
2018-12-08T04:58:04.493Z,967.84
2018-12-08T04:59:05.134Z,967.84
2018-12-08T05:00:05.355Z,967.87
2018-12-08T05:01:04.620Z,967.90
2018-12-08T05:02:04.867Z,967.84
2018-12-08T05:03:05.081Z,967.90
2018-12-08T05:04:05.390Z,967.90
2018-12-08T05:05:05.510Z,967.87
2018-12-08T05:06:04.954Z,967.85
2018-12-08T05:07:05.037Z,967.90
2018-12-08T05:08:05.187Z,967.90
2018-12-08T05:09:05.532Z,967.88
2018-12-08T05:10:04.827Z,967.93
2018-12-08T05:11:05.351Z,967.91
2018-12-08T05:12:04.831Z,967.63
2018-12-08T05:13:05.196Z,967.74
2018-12-08T05:14:05.218Z,967.77
2018-12-08T05:15:05.036Z,967.66
2018-12-08T05:16:04.814Z,967.83
2018-12-08T05:17:04.642Z,967.71
2018-12-08T05:18:04.846Z,967.77
2018-12-08T05:19:04.864Z,967.83
2018-12-08T05:20:05.433Z,967.83
2018-12-08T05:21:05.148Z,967.83
2018-12-08T05:22:05.243Z,967.86
2018-12-08T05:23:05.410Z,967.80
2018-12-08T05:24:05.444Z,967.85
2018-12-08T05:25:05.786Z,967.88
2018-12-08T05:26:05.302Z,967.80
2018-12-08T05:27:05.279Z,967.74
2018-12-08T05:28:04.625Z,967.82
2018-12-08T05:29:04.956Z,967.80
2018-12-08T05:30:05.025Z,967.88
2018-12-08T05:31:04.554Z,967.88
2018-12-08T05:32:04.777Z,967.85
2018-12-08T05:33:04.840Z,967.88
2018-12-08T05:34:05.297Z,967.99
2018-12-08T05:35:05.412Z,967.82
2018-12-08T05:36:05.055Z,967.76
2018-12-08T05:37:04.582Z,967.90
2018-12-08T05:38:04.767Z,967.90
2018-12-08T05:39:05.291Z,967.76
2018-12-08T05:40:05.002Z,967.85
2018-12-08T05:41:05.328Z,967.79
2018-12-08T05:42:05.395Z,967.65
2018-12-08T05:43:04.578Z,967.74
2018-12-08T05:44:10.015Z,967.63
2018-12-08T05:45:05.471Z,967.68
2018-12-08T05:46:04.976Z,967.68
2018-12-08T05:47:04.711Z,967.71
2018-12-08T05:48:05.102Z,967.74
2018-12-08T05:49:05.133Z,967.77
2018-12-08T05:50:04.508Z,967.65
2018-12-08T05:51:04.904Z,967.54
2018-12-08T05:52:04.926Z,967.66
2018-12-08T05:53:05.323Z,967.65
2018-12-08T05:54:04.967Z,967.52
2018-12-08T05:55:05.144Z,967.52
2018-12-08T05:56:05.555Z,967.49
2018-12-08T05:57:04.988Z,967.69
2018-12-08T05:58:05.141Z,967.52
2018-12-08T05:59:05.248Z,967.71
2018-12-08T06:00:04.827Z,967.49
2018-12-08T06:01:05.741Z,967.60
2018-12-08T06:02:04.673Z,967.69
2018-12-08T06:03:04.811Z,967.55
2018-12-08T06:04:10.403Z,967.63
2018-12-08T06:05:04.872Z,967.61
2018-12-08T06:06:05.043Z,967.63
2018-12-08T06:07:05.577Z,967.64
2018-12-08T06:08:04.735Z,967.55
2018-12-08T06:09:04.944Z,967.61
2018-12-08T06:10:05.254Z,967.61
2018-12-08T06:11:05.554Z,967.66
2018-12-08T06:12:04.868Z,967.66
2018-12-08T06:13:05.533Z,967.61
2018-12-08T06:14:04.979Z,967.52
2018-12-08T06:15:05.295Z,967.55
2018-12-08T06:16:05.460Z,967.67
2018-12-08T06:17:05.144Z,967.64
2018-12-08T06:18:05.178Z,967.81
2018-12-08T06:19:05.333Z,967.78
2018-12-08T06:20:05.421Z,967.78
2018-12-08T06:21:04.827Z,967.92
2018-12-08T06:22:05.205Z,967.75
2018-12-08T06:23:04.820Z,967.75
2018-12-08T06:24:05.516Z,967.81
2018-12-08T06:25:04.566Z,967.81
2018-12-08T06:26:04.686Z,967.81
2018-12-08T06:27:05.368Z,967.92
2018-12-08T06:28:10.461Z,967.98
2018-12-08T06:29:04.830Z,967.70
2018-12-08T06:30:05.467Z,967.89
2018-12-08T06:31:05.149Z,967.89
2018-12-08T06:32:04.574Z,967.92
2018-12-08T06:33:04.714Z,967.92
2018-12-08T06:34:04.811Z,967.95
2018-12-08T06:35:05.087Z,967.89
2018-12-08T06:36:04.754Z,967.95
2018-12-08T06:37:05.079Z,967.94
2018-12-08T06:38:04.780Z,968.05
2018-12-08T06:39:04.900Z,967.94
2018-12-08T06:40:04.998Z,968.00
2018-12-08T06:41:05.301Z,967.88
2018-12-08T06:42:05.349Z,967.88
2018-12-08T06:43:05.462Z,967.80
2018-12-08T06:44:04.754Z,967.77
2018-12-08T06:45:05.477Z,967.66
2018-12-08T06:46:04.498Z,967.71
2018-12-08T06:47:04.869Z,967.77
2018-12-08T06:48:05.032Z,967.83
2018-12-08T06:49:04.656Z,967.77
2018-12-08T06:50:04.803Z,967.69
2018-12-08T06:51:05.349Z,967.91
2018-12-08T06:52:10.479Z,967.80
2018-12-08T06:53:04.853Z,967.69
2018-12-08T06:54:05.420Z,967.80
2018-12-08T06:55:04.801Z,967.74
2018-12-08T06:56:04.954Z,967.83
2018-12-08T06:57:05.041Z,967.72
2018-12-08T06:58:05.259Z,967.75
2018-12-08T06:59:05.254Z,967.78
2018-12-08T07:00:05.577Z,967.81
2018-12-08T07:01:04.610Z,967.89
2018-12-08T07:02:04.917Z,967.75
2018-12-08T07:03:05.087Z,967.72
2018-12-08T07:04:05.211Z,967.72
2018-12-08T07:05:04.597Z,967.72
2018-12-08T07:06:05.203Z,967.84
2018-12-08T07:07:04.967Z,967.84
2018-12-08T07:08:05.139Z,967.78
2018-12-08T07:09:04.527Z,967.81
2018-12-08T07:10:05.232Z,967.92
2018-12-08T07:11:05.454Z,967.89
2018-12-08T07:12:05.466Z,967.84
2018-12-08T07:13:04.634Z,967.70
2018-12-08T07:14:05.025Z,967.78
2018-12-08T07:15:04.709Z,967.84
2018-12-08T07:16:04.813Z,967.70
2018-12-08T07:17:05.270Z,967.89
2018-12-08T07:18:05.189Z,967.75
2018-12-08T07:19:04.778Z,967.72
2018-12-08T07:20:05.166Z,967.86
2018-12-08T07:21:05.259Z,967.86
2018-12-08T07:22:05.576Z,967.72
2018-12-08T07:23:05.091Z,967.86
2018-12-08T07:24:05.335Z,967.86
2018-12-08T07:25:04.886Z,967.86
2018-12-08T07:26:04.799Z,967.83
2018-12-08T07:27:04.537Z,967.78
2018-12-08T07:28:10.138Z,967.72
2018-12-08T07:29:04.670Z,967.80
2018-12-08T07:30:04.680Z,967.74
2018-12-08T07:31:05.387Z,967.83
2018-12-08T07:32:05.508Z,967.66
2018-12-08T07:33:05.054Z,967.77
2018-12-08T07:34:04.780Z,967.85
2018-12-08T07:35:04.608Z,967.74
2018-12-08T07:36:05.100Z,967.93
2018-12-08T07:37:05.164Z,967.76
2018-12-08T07:38:05.422Z,967.65
2018-12-08T07:39:05.181Z,967.76
2018-12-08T07:40:05.215Z,967.59
2018-12-08T07:41:04.661Z,967.62
2018-12-08T07:42:05.007Z,967.45
2018-12-08T07:43:05.116Z,967.48
2018-12-08T07:44:05.181Z,967.64
2018-12-08T07:45:04.857Z,967.34
2018-12-08T07:46:05.037Z,967.44
2018-12-08T07:47:05.448Z,967.44
2018-12-08T07:48:04.700Z,967.39
2018-12-08T07:49:05.202Z,967.50
2018-12-08T07:50:05.249Z,967.25
2018-12-08T07:51:05.435Z,967.39
2018-12-08T07:52:04.655Z,967.50
2018-12-08T07:53:05.465Z,967.52
2018-12-08T07:54:05.561Z,967.41
2018-12-08T07:55:04.621Z,967.28
2018-12-08T07:56:05.035Z,967.36
2018-12-08T07:57:05.038Z,967.36
2018-12-08T07:58:05.258Z,967.41
2018-12-08T07:59:05.405Z,967.36
2018-12-08T08:00:05.039Z,967.47
2018-12-08T08:01:05.240Z,967.33
2018-12-08T08:02:04.704Z,967.47
2018-12-08T08:03:05.334Z,967.33
2018-12-08T08:04:05.561Z,967.46
2018-12-08T08:05:04.548Z,967.33
2018-12-08T08:06:04.794Z,967.44
2018-12-08T08:07:05.413Z,967.41
2018-12-08T08:08:05.018Z,967.46
2018-12-08T08:09:05.005Z,967.24
2018-12-08T08:10:05.547Z,967.33
2018-12-08T08:11:04.614Z,967.43
2018-12-08T08:12:04.743Z,967.46
2018-12-08T08:13:04.796Z,967.36
2018-12-08T08:14:05.221Z,967.24
2018-12-08T08:15:04.797Z,967.30
2018-12-08T08:16:05.407Z,967.40
2018-12-08T08:17:04.964Z,967.46
2018-12-08T08:18:05.204Z,967.43
2018-12-08T08:19:05.352Z,967.35
2018-12-08T08:20:05.513Z,967.27
2018-12-08T08:21:04.934Z,967.30
2018-12-08T08:22:05.220Z,967.24
2018-12-08T08:23:05.254Z,967.30
2018-12-08T08:24:05.508Z,967.40
2018-12-08T08:25:04.765Z,967.40
2018-12-08T08:26:05.372Z,967.35
2018-12-08T08:27:04.634Z,967.45
2018-12-08T08:28:09.820Z,967.43
2018-12-08T08:29:05.233Z,967.51
2018-12-08T08:30:04.822Z,967.40
2018-12-08T08:31:05.069Z,967.39
2018-12-08T08:32:05.418Z,967.32
2018-12-08T08:33:05.299Z,967.32
2018-12-08T08:34:05.449Z,967.45
2018-12-08T08:35:04.970Z,967.45
2018-12-08T08:36:04.681Z,967.47
2018-12-08T08:37:04.767Z,967.31
2018-12-08T08:38:05.235Z,967.44
2018-12-08T08:39:05.538Z,967.16
2018-12-08T08:40:04.912Z,967.41
2018-12-08T08:41:04.587Z,967.36
2018-12-08T08:42:04.639Z,967.33
2018-12-08T08:43:04.807Z,967.21
2018-12-08T08:44:05.461Z,967.32
2018-12-08T08:45:04.590Z,967.40
2018-12-08T08:46:05.060Z,967.29
2018-12-08T08:47:05.305Z,967.26
2018-12-08T08:48:09.705Z,967.21
2018-12-08T08:49:05.261Z,967.39
2018-12-08T08:50:05.509Z,967.20
2018-12-08T08:51:05.595Z,967.23
2018-12-08T08:52:04.853Z,967.39
2018-12-08T08:53:04.566Z,967.29
2018-12-08T08:54:04.949Z,967.15
2018-12-08T08:55:05.299Z,967.32
2018-12-08T08:56:05.469Z,967.42
2018-12-08T08:57:05.184Z,967.17
2018-12-08T08:58:05.165Z,967.09
2018-12-08T08:59:05.276Z,967.32
2018-12-08T09:00:05.373Z,967.23
2018-12-08T09:01:04.945Z,967.20
2018-12-08T09:02:05.324Z,967.32
2018-12-08T09:03:04.646Z,967.34
2018-12-08T09:04:04.824Z,967.34
2018-12-08T09:05:05.031Z,967.31
2018-12-08T09:06:04.776Z,967.29
2018-12-08T09:07:04.924Z,967.42
2018-12-08T09:08:05.248Z,967.26
2018-12-08T09:09:04.747Z,967.29
2018-12-08T09:10:05.096Z,967.39
2018-12-08T09:11:05.302Z,967.20
2018-12-08T09:12:04.865Z,967.20
2018-12-08T09:13:05.038Z,967.17
2018-12-08T09:14:04.691Z,967.20
2018-12-08T09:15:04.809Z,967.12
2018-12-08T09:16:06.204Z,967.09
2018-12-08T09:17:05.064Z,967.20
2018-12-08T09:18:05.228Z,967.20
2018-12-08T09:19:05.850Z,967.14
2018-12-08T09:20:04.817Z,967.14
2018-12-08T09:21:05.277Z,967.17
2018-12-08T09:22:05.526Z,967.01
2018-12-08T09:23:04.880Z,967.03
2018-12-08T09:24:05.006Z,967.08
2018-12-08T09:25:04.766Z,967.08
2018-12-08T09:26:05.426Z,967.00
2018-12-08T09:27:04.760Z,967.00
2018-12-08T09:28:09.992Z,967.00
2018-12-08T09:29:05.444Z,967.02
2018-12-08T09:30:05.432Z,967.16
2018-12-08T09:31:04.679Z,966.97
2018-12-08T09:32:05.109Z,966.97
2018-12-08T09:33:05.403Z,966.97
2018-12-08T09:34:04.554Z,967.00
2018-12-08T09:35:05.070Z,966.94
2018-12-08T09:36:05.220Z,967.00
2018-12-08T09:37:05.582Z,967.13
2018-12-08T09:38:05.248Z,967.07
2018-12-08T09:39:04.662Z,966.94
2018-12-08T09:40:05.520Z,966.99
2018-12-08T09:41:04.578Z,966.91
2018-12-08T09:42:04.737Z,967.04
2018-12-08T09:43:05.424Z,966.90
2018-12-08T09:44:04.817Z,966.93
2018-12-08T09:45:04.873Z,967.01
2018-12-08T09:46:05.019Z,966.88
2018-12-08T09:47:05.327Z,966.90
2018-12-08T09:48:05.394Z,966.90
2018-12-08T09:49:04.804Z,966.93
2018-12-08T09:50:05.113Z,966.93
2018-12-08T09:51:05.274Z,966.73
2018-12-08T09:52:04.909Z,966.84
2018-12-08T09:53:05.083Z,967.03
2018-12-08T09:54:04.634Z,966.79
2018-12-08T09:55:05.014Z,966.98
2018-12-08T09:56:05.255Z,966.87
2018-12-08T09:57:04.705Z,966.84
2018-12-08T09:58:04.796Z,966.73
2018-12-08T09:59:05.477Z,966.81
2018-12-08T10:00:09.890Z,966.79
2018-12-08T10:01:05.371Z,966.59
2018-12-08T10:02:04.798Z,966.50
2018-12-08T10:03:05.239Z,966.73
2018-12-08T10:04:05.385Z,966.47
2018-12-08T10:05:04.643Z,966.53
2018-12-08T10:06:05.031Z,966.59
2018-12-08T10:07:04.609Z,966.53
2018-12-08T10:08:04.803Z,966.56
2018-12-08T10:09:04.980Z,966.64
2018-12-08T10:10:05.108Z,966.47
2018-12-08T10:11:05.274Z,966.47
2018-12-08T10:12:04.726Z,966.50
2018-12-08T10:13:04.821Z,966.47
2018-12-08T10:14:05.292Z,966.33
2018-12-08T10:15:05.491Z,966.35
2018-12-08T10:16:04.548Z,966.30
2018-12-08T10:17:05.081Z,966.46
2018-12-08T10:18:05.142Z,966.49
2018-12-08T10:19:05.423Z,966.48
2018-12-08T10:20:04.908Z,966.45
2018-12-08T10:21:05.077Z,966.39
2018-12-08T10:22:04.648Z,966.47
2018-12-08T10:23:05.054Z,966.42
2018-12-08T10:24:05.199Z,966.36
2018-12-08T10:25:05.425Z,966.41
2018-12-08T10:26:04.853Z,966.38
2018-12-08T10:27:05.044Z,966.38
2018-12-08T10:28:04.667Z,966.38
2018-12-08T10:29:05.161Z,966.27
2018-12-08T10:30:05.459Z,966.24
2018-12-08T10:31:05.049Z,966.21
2018-12-08T10:32:05.107Z,966.15
2018-12-08T10:33:05.298Z,966.43
2018-12-08T10:34:10.494Z,966.32
2018-12-08T10:35:04.832Z,966.26
2018-12-08T10:36:05.166Z,966.37
2018-12-08T10:37:05.297Z,966.26
2018-12-08T10:38:04.794Z,966.15
2018-12-08T10:39:05.410Z,966.18
2018-12-08T10:40:04.692Z,966.23
2018-12-08T10:41:05.328Z,966.29
2018-12-08T10:42:04.606Z,966.21
2018-12-08T10:43:04.718Z,966.26
2018-12-08T10:44:04.929Z,966.15
2018-12-08T10:45:05.199Z,966.18
2018-12-08T10:46:04.836Z,966.24
2018-12-08T10:47:04.951Z,966.24
2018-12-08T10:48:05.277Z,966.21
2018-12-08T10:49:05.500Z,966.21
2018-12-08T10:50:04.522Z,966.13
2018-12-08T10:51:04.736Z,966.24
2018-12-08T10:52:05.079Z,966.12
2018-12-08T10:53:05.192Z,966.13
2018-12-08T10:54:05.630Z,966.18
2018-12-08T10:55:04.747Z,966.13
2018-12-08T10:56:05.080Z,966.24
2018-12-08T10:57:05.260Z,966.13
2018-12-08T10:58:04.545Z,966.13
2018-12-08T10:59:04.917Z,966.16
2018-12-08T11:00:04.904Z,966.16
2018-12-08T11:01:05.338Z,965.99
2018-12-08T11:02:05.559Z,965.96
2018-12-08T11:03:04.636Z,966.01
2018-12-08T11:04:05.085Z,966.04
2018-12-08T11:05:04.906Z,965.96
2018-12-08T11:06:05.235Z,965.93
2018-12-08T11:07:04.666Z,965.98
2018-12-08T11:08:05.036Z,965.96
2018-12-08T11:09:05.289Z,965.87
2018-12-08T11:10:05.409Z,965.92
2018-12-08T11:11:04.946Z,965.92
2018-12-08T11:12:05.548Z,965.98
2018-12-08T11:13:04.633Z,966.06
2018-12-08T11:14:05.175Z,965.87
2018-12-08T11:15:04.525Z,965.78
2018-12-08T11:16:04.672Z,965.89
2018-12-08T11:17:04.908Z,965.87
2018-12-08T11:18:05.525Z,965.78
2018-12-08T11:19:04.880Z,965.92
2018-12-08T11:20:05.204Z,965.98
2018-12-08T11:21:05.449Z,965.75
2018-12-08T11:22:04.946Z,965.81
2018-12-08T11:23:05.424Z,965.95
2018-12-08T11:24:04.864Z,965.84
2018-12-08T11:25:04.838Z,965.75
2018-12-08T11:26:05.347Z,965.75
2018-12-08T11:27:05.466Z,965.89
2018-12-08T11:28:10.023Z,965.86
2018-12-08T11:29:05.543Z,965.80
2018-12-08T11:30:04.538Z,965.80
2018-12-08T11:31:05.015Z,965.75
2018-12-08T11:32:04.493Z,965.86
2018-12-08T11:33:04.854Z,965.88
2018-12-08T11:34:04.534Z,965.83
2018-12-08T11:35:04.688Z,965.77
2018-12-08T11:36:04.813Z,965.79
2018-12-08T11:37:05.229Z,965.68
2018-12-08T11:38:04.712Z,965.62
2018-12-08T11:39:05.114Z,965.81
2018-12-08T11:40:05.268Z,965.61
2018-12-08T11:41:04.573Z,965.64
2018-12-08T11:42:04.942Z,965.63
2018-12-08T11:43:05.010Z,965.53
2018-12-08T11:44:05.234Z,965.72
2018-12-08T11:45:05.376Z,965.58
2018-12-08T11:46:04.691Z,965.77
2018-12-08T11:47:05.174Z,965.55
2018-12-08T11:48:10.412Z,965.58
2018-12-08T11:49:04.931Z,965.53
2018-12-08T11:50:05.381Z,965.60
2018-12-08T11:51:05.184Z,965.60
2018-12-08T11:52:04.583Z,965.69
2018-12-08T11:53:04.749Z,965.69
2018-12-08T11:54:04.897Z,965.60
2018-12-08T11:55:05.181Z,965.58
2018-12-08T11:56:06.039Z,965.71
2018-12-08T11:57:04.797Z,965.58
2018-12-08T11:58:04.841Z,965.68
2018-12-08T11:59:05.462Z,965.65
2018-12-08T12:00:05.429Z,965.71
2018-12-08T12:01:05.503Z,965.65
2018-12-08T12:02:04.761Z,965.74
2018-12-08T12:03:04.961Z,965.68
2018-12-08T12:04:04.966Z,965.91
2018-12-08T12:05:05.006Z,965.74
2018-12-08T12:06:05.258Z,965.62
2018-12-08T12:07:04.817Z,965.82
2018-12-08T12:08:04.863Z,965.71
2018-12-08T12:09:05.282Z,965.76
2018-12-08T12:10:05.331Z,965.58
2018-12-08T12:11:05.182Z,965.55
2018-12-08T12:12:05.345Z,965.58
2018-12-08T12:13:04.643Z,965.71
2018-12-08T12:14:04.717Z,965.71
2018-12-08T12:15:04.838Z,965.56
2018-12-08T12:16:04.893Z,965.61
2018-12-08T12:17:05.252Z,965.64
2018-12-08T12:18:04.707Z,965.48
2018-12-08T12:19:04.827Z,965.53
2018-12-08T12:20:05.538Z,965.51
2018-12-08T12:21:04.546Z,965.45
2018-12-08T12:22:05.309Z,965.64
2018-12-08T12:23:05.370Z,965.61
2018-12-08T12:24:05.099Z,965.57
2018-12-08T12:25:04.844Z,965.60
2018-12-08T12:26:05.018Z,965.73
2018-12-08T12:27:04.596Z,965.45
2018-12-08T12:28:04.916Z,965.48